Guyton, Georgia
Current Conditions -  °F | °C
As of 9:53 PM on Thursday 27 Nov 2014 (Local Time) from KSAV Reporting Station
Clear Clear  
Wind Chill: 41°   Ceiling: Unl
Heat Index: 46°   Visibility: 10mi
Dew Point: 31°   Wind: 9mph
Humidity: 56%   Direction: 310°NW
Pressure: 30.32"   Gusts: NA
Location:  32.34°N, 81.39°W
Report Text: KSAV 280253Z 31008KT 10SM CLR 08/M01 A3032 RMK AO2 SLP265 T00781006 53016
Loading
Personal Weather Stations






























Interactive Weather Map New forecast layout! Learn more

10-Day Weather Forecast

Advertisements
Track Severe Weather on mobile